Latest Weather Observations for Wadeye (Port Keats)

IDD60801

Issued at 2:01 pm CST Wednesday 29 July 2015 (issued every 30 minutes, with the page automatically refreshed every 10 minutes)

About weather observations | Map of weather stations | Latest weather observations for NT | Other Formats
Station Details ID: 014948 Name: PORT KEATS AIRPORT Lat: -14.25 Lon: 129.53 Height: 28.0 m
Data from the previous 72 hours. | See also: Recent months at Wadeye (Port Keats)
Date/Time
CST
Temp
°C
App
Temp
°C
Dew
Point
Rel
Hum
%
Delta-T
°C
Wind Press
QNH
hPa
Press
MSL
hPa
Rain
since 9 am
mm
Dir
 
Spd
km/h
Gust
km/h
Spd
kts
Gust
kts
29/02:00pm 30.6 25.6 3.6 18 13.8 SE 19 30 10 16 1016.4 1016.3 0.0
29/01:30pm 30.0 24.9 3.9 19 13.3 SE 20 28 11 15 1016.9 1016.8 0.0
29/01:00pm 30.0 24.3 3.1 18 13.6 SE 22 30 12 16 1017.5 1017.4 0.0
29/12:30pm 29.5 23.5 3.5 19 13.1 SE 24 35 13 19 1018.0 1017.9 0.0
29/12:00pm 28.4 22.4 3.3 20 12.5 SE 24 35 13 19 1018.6 1018.5 0.0
29/11:30am 28.1 22.0 3.0 20 12.4 ESE 24 33 13 18 1019.0 1018.9 0.0
29/11:00am 27.2 21.3 3.7 22 11.7 ESE 24 39 13 21 1019.5 1019.4 0.0
29/10:30am 25.9 20.7 2.6 22 11.3 ESE 19 30 10 16 1019.8 1019.7 0.0
29/10:00am 25.1 19.0 2.5 23 10.9 SE 24 32 13 17 1019.8 1019.7 0.0
29/09:30am 24.2 18.8 2.4 24 10.4 SE 20 33 11 18 1019.9 1019.8 0.0
29/09:00am 23.2 18.0 2.7 26 9.8 ESE 19 28 10 15 1019.5 1019.4 0.0
29/08:30am 22.4 16.6 2.5 27 9.4 SE 22 33 12 18 1019.1 1019.0 0.0
29/08:00am 21.8 17.0 2.5 28 9.1 SE 17 24 9 13 1018.6 1018.5 0.0
29/07:30am 21.3 16.1 2.6 29 8.8 SE 19 26 10 14 1018.2 1018.1 0.0
29/07:00am 21.3 16.5 2.6 29 8.8 SE 17 22 9 12 1017.9 1017.8 0.0
29/06:30am 21.4 16.7 3.1 30 8.7 SE 17 24 9 13 1017.6 1017.5 0.0
29/06:00am 21.6 16.5 3.3 30 8.7 SE 19 28 10 15 1017.5 1017.4 0.0
29/05:30am 22.1 17.0 3.3 29 9.0 SE 19 28 10 15 1017.4 1017.3 0.0
29/05:00am 22.3 17.1 3.4 29 9.1 SE 20 28 11 15 1017.4 1017.3 0.0
29/04:30am 22.5 17.6 4.1 30 9.0 SE 19 24 10 13 1017.3 1017.2 0.0
29/04:00am 22.3 17.8 4.4 31 8.8 SSE 17 22 9 12 1017.4 1017.3 0.0
29/03:30am 22.4 17.6 4.9 32 8.7 SSE 19 24 10 13 1017.6 1017.5 0.0
29/03:00am 23.0 18.3 5.0 31 9.0 SSE 19 28 10 15 1017.7 1017.6 0.0
29/02:30am 23.2 18.5 5.1 31 9.0 SSE 19 26 10 14 1017.9 1017.8 0.0
29/02:00am 23.2 19.0 5.6 32 8.9 SSE 17 22 9 12 1018.0 1017.9 0.0
29/01:30am 22.6 19.7 6.4 35 8.2 SSE 11 17 6 9 1018.1 1018.0 0.0
29/01:00am 22.8 19.8 6.1 34 8.5 SSE 11 15 6 8 1018.1 1018.0 0.0
29/12:30am 23.1 20.6 6.4 34 8.5 S 9 13 5 7 1018.1 1018.0 0.0
29/12:00am 23.6 21.1 6.4 33 8.8 SSE 9 15 5 8 1018.0 1017.9 0.0
 
Date/Time
CST
Temp
°C
App
Temp
°C
Dew
Point
Rel
Hum
%
Delta-T
°C
Wind Press
QNH
hPa
Press
MSL
hPa
Rain
since 9 am
mm
Dir
 
Spd
km/h
Gust
km/h
Spd
kts
Gust
kts
28/11:30pm 23.7 21.2 6.5 33 8.8 SSE 9 15 5 8 1018.1 1018.0 0.0
28/11:00pm 23.6 21.3 7.3 35 8.5 SSE 9 13 5 7 1018.2 1018.1 0.0
28/10:30pm 23.7 21.5 7.8 36 8.4 S 9 13 5 7 1018.3 1018.2 0.0
28/10:00pm 23.9 21.6 7.5 35 8.6 SSE 9 11 5 6 1018.4 1018.3 0.0
28/09:30pm 24.5 22.2 7.6 34 8.9 S 9 13 5 7 1018.2 1018.1 0.0
28/09:00pm 24.2 21.9 7.4 34 8.8 S 9 15 5 8 1018.0 1017.9 0.0
28/08:30pm 24.1 22.0 8.1 36 8.5 SSW 9 13 5 7 1017.6 1017.5 0.0
28/08:00pm 23.9 21.9 8.7 38 8.2 SSW 9 13 5 7 1017.1 1017.0 0.0
28/07:30pm 25.1 23.5 8.6 35 8.9 SSW 7 11 4 6 1016.7 1016.6 0.0
28/07:00pm 28.1 25.1 6.2 25 11.5 S 11 17 6 9 1016.2 1016.1 0.0
28/06:30pm 29.4 26.0 6.1 23 12.3 SSE 13 20 7 11 1015.9 1015.8 0.0
28/06:00pm 30.6 26.4 5.8 21 13.1 SE 17 26 9 14 1015.5 1015.4 0.0
28/05:30pm 31.2 26.0 5.6 20 13.5 SE 22 28 12 15 1015.2 1015.1 0.0
28/05:00pm 31.7 27.6 6.0 20 13.7 SE 17 28 9 15 1015.0 1014.9 0.0
28/04:30pm 32.0 28.1 5.5 19 14.1 SE 15 24 8 13 1015.0 1014.9 0.0
28/04:00pm 31.6 26.7 5.2 19 13.9 SE 20 30 11 16 1014.9 1014.8 0.0
28/03:30pm 31.6 27.8 5.9 20 13.7 SSE 15 24 8 13 1015.2 1015.1 0.0
28/03:00pm 31.7 27.4 5.3 19 13.9 SSE 17 30 9 16 1015.7 1015.6 0.0
28/02:30pm 31.7 27.0 5.3 19 13.9 SE 19 30 10 16 1016.2 1016.1 0.0
28/02:00pm 31.1 26.1 4.8 19 13.7 SE 20 32 11 17 1016.7 1016.6 0.0
28/01:30pm 30.4 25.3 4.2 19 13.5 SSE 20 30 11 16 1017.4 1017.3 0.0
28/01:00pm 29.6 24.7 4.3 20 13.0 SE 19 30 10 16 1018.0 1017.9 0.0
28/12:30pm 29.3 24.5 4.7 21 12.7 SE 19 32 10 17 1018.5 1018.4 0.0
28/12:00pm 28.2 22.8 4.5 22 12.1 SE 22 32 12 17 1019.1 1019.0 0.0
28/11:30am 27.6 21.0 4.0 22 11.9 SE 28 37 15 20 1019.4 1019.3 0.0
28/11:00am 26.3 19.6 3.5 23 11.3 ESE 28 37 15 20 1019.6 1019.5 0.0
28/10:30am 26.6 20.0 4.4 24 11.2 SE 28 37 15 20 1019.9 1019.8 0.0
28/10:00am 25.3 18.6 3.9 25 10.6 SE 28 33 15 18 1020.1 1020.0 0.0
28/09:30am 24.3 17.6 3.6 26 10.1 SE 28 39 15 21 1020.0 1019.9 0.0
28/09:00am 23.6 17.3 4.0 28 9.6 SE 26 39 14 21 1019.8 1019.7 0.0
28/08:30am 22.8 17.4 4.3 30 9.1 SE 22 32 12 17 1019.5 1019.4 0.0
28/08:00am 22.3 17.3 4.4 31 8.8 SE 20 26 11 14 1019.4 1019.3 0.0
28/07:30am 22.0 16.9 4.1 31 8.7 SE 20 28 11 15 1019.0 1018.9 0.0
28/07:00am 22.1 17.0 4.2 31 8.7 SE 20 28 11 15 1018.5 1018.4 0.0
28/06:30am 22.4 18.0 4.5 31 8.8 SE 17 22 9 12 1018.3 1018.2 0.0
28/06:00am 22.9 18.1 4.9 31 8.9 SE 19 22 10 12 1018.0 1017.9 0.0
28/05:30am 23.4 18.5 4.9 30 9.2 SE 20 30 11 16 1017.7 1017.6 0.0
28/05:00am 23.8 19.1 5.2 30 9.4 SE 19 24 10 13 1017.6 1017.5 0.0
28/04:30am 24.1 19.5 5.5 30 9.4 SE 19 30 10 16 1017.5 1017.4 0.0
28/04:00am 24.5 19.7 5.8 30 9.5 SE 20 32 11 17 1017.3 1017.2 0.0
28/03:30am 25.1 20.2 6.8 31 9.5 SE 22 32 12 17 1017.1 1017.0 0.0
28/03:00am 24.7 21.0 7.8 34 8.9 SSE 17 24 9 13 1017.2 1017.1 0.0
28/02:30am 24.8 21.2 8.3 35 8.8 SSE 17 22 9 12 1017.2 1017.1 0.0
28/02:00am 25.4 22.2 8.4 34 9.1 SSE 15 20 8 11 1017.2 1017.1 0.0
28/01:30am 24.8 22.4 8.7 36 8.7 SSE 11 17 6 9 1017.3 1017.2 0.0
28/01:00am 27.0 23.8 8.4 31 10.1 SE 15 20 8 11 1017.4 1017.3 0.0
28/12:30am 26.8 24.9 10.5 36 9.1 SE 11 20 6 11 1017.3 1017.2 0.0
28/12:00am 24.7 22.1 9.4 38 8.3 SE 13 17 7 9 1017.4 1017.3 0.0
 
Date/Time
CST
Temp
°C
App
Temp
°C
Dew
Point
Rel
Hum
%
Delta-T
°C
Wind Press
QNH
hPa
Press
MSL
hPa
Rain
since 9 am
mm
Dir
 
Spd
km/h
Gust
km/h
Spd
kts
Gust
kts
27/11:30pm 26.0 24.1 8.9 34 9.3 SE 9 13 5 7 1017.4 1017.3 0.0
27/11:00pm 27.6 25.5 9.9 33 9.9 SE 11 15 6 8 1017.3 1017.2 0.0
27/10:30pm 25.1 23.4 9.8 38 8.4 SSE 9 11 5 6 1017.2 1017.1 0.0
27/10:00pm 29.0 26.4 9.2 29 11.0 SE 13 17 7 9 1017.0 1016.9 0.0
27/09:30pm 29.3 27.0 8.9 28 11.3 ESE 11 15 6 8 1016.8 1016.7 0.0
27/09:00pm 29.5 27.1 8.5 27 11.5 ESE 11 15 6 8 1016.4 1016.3 0.0
27/08:30pm 29.6 27.7 9.2 28 11.4 SE 9 11 5 6 1016.0 1015.9 0.0
27/08:00pm 30.0 28.1 9.0 27 11.7 ESE 9 11 5 6 1015.6 1015.5 0.0
27/07:30pm 30.8 29.3 9.1 26 12.1 ESE 7 11 4 6 1015.3 1015.2 0.0
27/07:00pm 31.9 29.5 8.8 24 12.9 ESE 11 15 6 8 1014.9 1014.8 0.0
27/06:30pm 32.9 29.8 9.0 23 13.5 SE 15 20 8 11 1014.5 1014.4 0.0
27/06:00pm 33.7 30.6 9.0 22 14.0 ESE 15 24 8 13 1014.2 1014.1 0.0
27/05:30pm 34.1 30.2 9.4 22 14.1 SE 20 32 11 17 1014.0 1013.9 0.0
27/05:00pm 34.1 30.2 9.4 22 14.1 E 20 30 11 16 1013.8 1013.7 0.0
27/04:30pm 34.5 30.9 10.4 23 14.0 ESE 20 33 11 18 1013.7 1013.6 0.0
27/04:00pm 34.3 29.1 10.2 23 13.9 SE 28 43 15 23 1013.8 1013.7 0.0
27/03:30pm 34.9 31.0 10.7 23 14.1 ESE 22 35 12 19 1014.0 1013.9 0.0
27/03:00pm 35.0 31.6 11.4 24 13.9 ESE 20 33 11 18 1014.2 1014.1 0.0
27/02:30pm 35.1 31.4 11.5 24 14.0 ESE 22 35 12 19 1014.6 1014.5 0.0
27/02:00pm 34.6 31.7 12.3 26 13.3 ENE 19 30 10 16 1014.9 1014.8 0.0
27/01:30pm 33.8 30.3 12.2 27 12.9 ESE 22 30 12 16 1015.4 1015.3 0.0
27/01:00pm 33.7 31.6 14.7 32 11.7 ESE 19 30 10 16 1016.1 1016.0 0.0
27/12:30pm 33.0 30.7 14.6 33 11.3 E 20 26 11 14 1016.8 1016.7 0.0
27/12:00pm 32.6 29.8 14.2 32 11.2 E 22 32 12 17 1017.2 1017.1 0.0
27/11:30am 32.1 30.2 14.3 34 10.8 E 17 26 9 14 1017.8 1017.7 0.0
27/11:00am 31.9 30.4 15.4 37 10.2 E 17 24 9 13 1018.0 1017.9 0.0
27/10:30am 30.5 28.9 15.0 39 9.5 E 17 24 9 13 1018.3 1018.2 0.0
27/10:00am 29.8 28.6 15.1 40 9.0 E 15 22 8 12 1018.2 1018.1 0.0
27/09:30am 28.4 28.2 16.7 49 7.3 E 13 17 7 9 1018.1 1018.0 0.0
27/09:00am 27.3 28.9 18.3 58 5.7 ESE 7 13 4 7 1018.1 1018.0 0.0
27/08:30am 25.5 29.3 20.1 72 3.5 CALM 0 0 0 0 1017.7 1017.6 0.0
27/08:00am 22.7 26.4 20.0 85 1.7 CALM 0 0 0 0 1017.6 1017.5 0.0
27/07:30am 21.5 24.9 19.4 88 1.3 CALM 0 0 0 0 1017.2 1017.1 0.0
27/07:00am 21.5 24.9 19.4 88 1.3 CALM 0 0 0 0 1016.9 1016.8 0.0
27/06:30am 21.9 25.9 20.5 92 0.9 CALM 0 0 0 0 1016.7 1016.6 0.0
27/06:00am 21.1 24.4 19.0 88 1.3 CALM 0 0 0 0 1016.5 1016.4 0.0
27/05:30am 21.5 24.6 20.3 93 0.8 S 4 7 2 4 1016.5 1016.4 0.0
27/05:00am 21.1 24.6 19.6 91 1.0 CALM 0 0 0 0 1016.3 1016.2 0.0
27/04:30am 21.0 24.1 19.5 91 1.0 SE 2 7 1 4 1016.3 1016.2 0.0
27/04:00am 20.1 23.0 18.2 89 1.2 CALM 0 6 0 3 1016.2 1016.1 0.0
27/03:30am 20.6 23.8 18.9 90 1.1 CALM 0 0 0 0 1016.3 1016.2 0.0
27/03:00am 20.2 22.1 18.5 90 1.1 S 6 7 3 4 1016.6 1016.5 0.0
27/02:30am 20.2 21.8 18.3 89 1.2 SSW 7 9 4 5 1016.9 1016.8 0.0
27/02:00am 21.0 24.1 18.6 86 1.5 CALM 0 0 0 0 1017.1 1017.0 0.0
27/01:30am 21.9 25.4 19.5 86 1.5 CALM 0 0 0 0 1017.3 1017.2 0.0
27/01:00am 21.9 25.4 19.6 87 1.5 CALM 0 0 0 0 1017.5 1017.4 0.0
27/12:30am 22.2 26.2 20.5 90 1.1 CALM 0 0 0 0 1017.5 1017.4 0.0
27/12:00am 21.5 24.8 19.2 87 1.5 CALM 0 0 0 0 1017.3 1017.2 0.0
 
Date/Time
CST
Temp
°C
App
Temp
°C
Dew
Point
Rel
Hum
%
Delta-T
°C
Wind Press
QNH
hPa
Press
MSL
hPa
Rain
since 9 am
mm
Dir
 
Spd
km/h
Gust
km/h
Spd
kts
Gust
kts
26/11:30pm 22.3 26.0 20.0 87 1.5 CALM 0 0 0 0 1017.3 1017.2 0.0
26/11:00pm 22.6 26.0 20.9 90 1.1 S 4 7 2 4 1017.3 1017.2 0.0
26/10:30pm 22.5 25.3 20.4 88 1.4 SSW 6 9 3 5 1017.3 1017.2 0.0
26/10:00pm 22.7 26.4 20.0 85 1.7 CALM 0 0 0 0 1017.2 1017.1 0.0
26/09:30pm 23.4 27.5 20.7 85 1.8 CALM 0 0 0 0 1017.0 1016.9 0.0
26/09:00pm 23.5 27.4 20.4 83 2.0 CALM 0 0 0 0 1017.0 1016.9 0.0
26/08:30pm 23.9 27.9 20.6 82 2.1 CALM 0 0 0 0 1016.8 1016.7 0.0
26/08:00pm 24.2 28.2 20.5 80 2.4 CALM 0 0 0 0 1016.5 1016.4 0.0
26/07:30pm 24.6 27.2 20.5 78 2.7 W 7 9 4 5 1016.2 1016.1 0.0
26/07:00pm 25.1 27.3 19.5 71 3.6 W 7 11 4 6 1015.9 1015.8 0.0
26/06:30pm 25.9 27.3 18.6 64 4.6 W 9 17 5 9 1015.6 1015.5 0.0
26/06:00pm 27.1 29.0 19.7 64 4.8 WNW 9 15 5 8 1015.2 1015.1 0.0
26/05:30pm 28.0 28.9 17.5 52 6.6 W 9 15 5 8 1015.0 1014.9 0.0
26/05:00pm 27.9 28.1 17.7 53 6.5 W 13 20 7 11 1014.7 1014.6 0.0
26/04:30pm 28.6 28.7 17.5 51 7.0 WNW 13 19 7 10 1014.4 1014.3 0.0
26/04:00pm 29.2 28.4 17.1 48 7.6 NW 17 20 9 11 1014.2 1014.1 0.0
26/03:30pm 29.8 29.2 17.6 48 7.8 NW 17 20 9 11 1014.2 1014.1 0.0
26/03:00pm 30.1 29.7 17.2 46 8.2 NNW 15 20 8 11 1014.1 1014.0 0.0
26/02:30pm 31.2 30.3 16.8 42 9.1 NNW 17 24 9 13 1014.4 1014.3 0.0

Other Formats:

Comma delimited format used in spreadsheet applications
http://www.bom.gov.au/fwo/IDD60801/IDD60801.95111.axf

JavaScript Object Notation format (JSON) in row-major order
http://www.bom.gov.au/fwo/IDD60801/IDD60801.95111.json